Time;durP1;ratioP1;P1;durP2;ratioP2;P2;SDS_P1;SDS_P2;PMS_P1;PMS_P2;Temp;Humidity;BMP_temperature;BMP_pressure;BME280_temperature;BME280_humidity;BME280_pressure;Samples;Min_cycle;Max_cycle;Signal;HPM_P1;HPM_P2
2022/03/06 00:01:25;;;;;;;12.18;8.55;;;2.40;92.80;;;;;;5078055;27;38483;-51
2022/03/06 00:03:52;;;;;;;14.10;9.10;;;2.50;92.80;;;;;;5080793;27;36640;-51
2022/03/06 00:06:20;;;;;;;18.33;10.05;;;2.50;92.70;;;;;;5080726;27;37127;-49
2022/03/06 00:08:47;;;;;;;11.93;8.82;;;2.50;92.80;;;;;;5079389;27;36436;-52
2022/03/06 00:11:15;;;;;;;13.93;9.10;;;2.50;92.70;;;;;;5080471;27;39906;-48
2022/03/06 00:13:42;;;;;;;13.23;8.65;;;2.50;92.70;;;;;;5078741;27;38151;-52
2022/03/06 00:16:09;;;;;;;11.75;7.70;;;2.60;93.10;;;;;;5078830;27;35520;-51
2022/03/06 00:18:38;;;;;;;13.20;7.82;;;2.60;92.90;;;;;;5081969;27;38217;-53
2022/03/06 00:21:06;;;;;;;13.75;8.40;;;2.60;92.70;;;;;;5078948;27;37424;-52
2022/03/06 00:23:35;;;;;;;13.00;8.00;;;2.60;92.70;;;;;;5081350;27;37444;-53
2022/03/06 00:26:02;;;;;;;11.25;7.63;;;2.70;92.70;;;;;;5078744;27;36991;-51
2022/03/06 00:28:29;;;;;;;11.68;7.88;;;2.70;92.60;;;;;;5081522;27;38310;-54
2022/03/06 00:30:57;;;;;;;10.95;7.55;;;2.80;92.60;;;;;;5081852;27;37620;-51
2022/03/06 00:33:24;;;;;;;12.20;7.65;;;2.80;92.60;;;;;;5080267;27;38084;-52
2022/03/06 00:35:53;;;;;;;15.38;7.78;;;2.80;92.50;;;;;;5082209;27;36241;-51
2022/03/06 00:38:20;;;;;;;13.40;7.78;;;2.90;92.60;;;;;;5082426;27;38357;-52
2022/03/06 00:40:48;;;;;;;12.15;7.35;;;2.80;92.50;;;;;;5083604;27;38689;-52
2022/03/06 00:43:15;;;;;;;11.05;6.97;;;2.80;92.60;;;;;;5083809;27;37980;-53
2022/03/06 00:45:43;;;;;;;13.00;6.55;;;2.90;92.60;;;;;;5082651;27;36588;-52
2022/03/06 00:48:10;;;;;;;11.88;6.40;;;2.80;92.60;;;;;;5084129;27;37255;-51
2022/03/06 00:50:38;;;;;;;11.48;6.10;;;2.90;92.60;;;;;;5084720;27;39029;-52
2022/03/06 00:53:07;;;;;;;8.85;5.88;;;2.90;92.40;;;;;;5083972;27;37479;-54
2022/03/06 00:55:34;;;;;;;16.58;7.32;;;2.90;92.50;;;;;;5086460;27;36872;-52
2022/03/06 00:58:05;;;;;;;10.73;6.00;;;3.00;92.40;;;;;;5085619;27;38333;-51
2022/03/06 01:00:35;;;;;;;9.27;5.60;;;3.00;92.30;;;;;;5082865;27;37790;-54
2022/03/06 01:03:04;;;;;;;10.77;5.68;;;3.00;92.20;;;;;;5083959;27;38735;-52
2022/03/06 01:05:32;;;;;;;10.82;5.50;;;3.10;92.20;;;;;;5084880;27;36387;-52
2022/03/06 01:08:00;;;;;;;12.98;5.93;;;3.10;92.40;;;;;;5083657;27;37349;-52
2022/03/06 01:10:28;;;;;;;8.77;6.22;;;3.10;92.30;;;;;;5080376;27;38487;-52
2022/03/06 01:12:56;;;;;;;11.23;5.88;;;3.10;92.40;;;;;;5081699;27;37141;-53
2022/03/06 01:15:23;;;;;;;15.63;5.47;;;3.10;92.30;;;;;;5084167;27;35980;-52
2022/03/06 01:17:51;;;;;;;12.73;5.90;;;3.20;92.50;;;;;;5085162;27;38315;-51
2022/03/06 01:20:19;;;;;;;11.45;5.60;;;3.20;92.30;;;;;;5082540;27;38918;-50
2022/03/06 01:22:47;;;;;;;10.73;5.63;;;3.20;92.50;;;;;;5083911;27;38056;-51
2022/03/06 01:25:15;;;;;;;14.90;5.97;;;3.20;92.30;;;;;;5082067;27;35425;-50
2022/03/06 01:27:44;;;;;;;7.47;4.47;;;3.70;92.40;;;;;;5083999;27;39589;-54
2022/03/06 01:30:15;;;;;;;13.05;5.63;;;3.30;92.40;;;;;;5086442;27;39144;-51
2022/03/06 01:32:43;;;;;;;9.45;5.47;;;3.20;92.40;;;;;;5082404;27;37640;-51
2022/03/06 01:35:11;;;;;;;9.57;5.18;;;3.30;92.50;;;;;;5084692;27;35819;-50
2022/03/06 01:37:38;;;;;;;11.02;5.72;;;3.20;92.60;;;;;;5084123;27;40095;-52
2022/03/06 01:40:07;;;;;;;11.80;5.82;;;3.20;92.70;;;;;;5083512;27;36509;-52
2022/03/06 01:42:35;;;;;;;11.27;5.05;;;3.20;92.80;;;;;;5084729;27;37185;-53
2022/03/06 01:45:06;;;;;;;8.68;5.10;;;3.20;93.10;;;;;;5084417;27;35401;-53
2022/03/06 01:47:35;;;;;;;11.05;5.03;;;3.10;93.20;;;;;;5084135;27;36961;-51
2022/03/06 01:50:03;;;;;;;9.57;5.30;;;3.10;93.20;;;;;;5083663;27;36565;-52
2022/03/06 01:52:31;;;;;;;10.88;5.10;;;3.10;93.30;;;;;;5078541;27;39147;-52
2022/03/06 01:54:59;;;;;;;9.77;5.50;;;3.10;93.20;;;;;;5078482;27;35168;-49
2022/03/06 01:57:27;;;;;;;9.00;4.57;;;3.10;93.20;;;;;;5080147;27;37542;-52
2022/03/06 01:59:55;;;;;;;9.43;4.90;;;3.10;93.40;;;;;;5078545;27;37733;-52
2022/03/06 02:02:24;;;;;;;11.80;5.47;;;3.00;93.70;;;;;;5077457;27;37223;-51
2022/03/06 02:04:51;;;;;;;8.40;5.20;;;3.00;93.60;;;;;;5077643;27;37907;-53
2022/03/06 02:07:19;;;;;;;10.98;5.68;;;3.00;93.70;;;;;;5078833;27;36366;-52
2022/03/06 02:09:46;;;;;;;9.38;5.20;;;2.90;93.80;;;;;;5079102;27;37878;-52
2022/03/06 02:12:23;;;;;;;7.55;4.20;;;2.90;93.90;;;;;;5078050;27;37253;-53
2022/03/06 02:14:50;;;;;;;9.23;4.10;;;2.90;93.80;;;;;;5076381;27;36689;-52
2022/03/06 02:17:18;;;;;;;10.80;4.63;;;2.90;93.90;;;;;;5079607;27;38753;-52
2022/03/06 02:19:55;;;;;;;10.05;4.13;;;2.90;93.80;;;;;;5078953;27;37773;-52
2022/03/06 02:22:25;;;;;;;8.45;4.63;;;2.90;93.70;;;;;;5078559;27;36000;-52
2022/03/06 02:24:53;;;;;;;8.20;3.63;;;2.90;93.50;;;;;;5079945;27;35990;-52
2022/03/06 02:27:21;;;;;;;8.38;3.92;;;2.90;93.50;;;;;;5080090;27;37441;-52
2022/03/06 02:29:49;;;;;;;7.03;3.42;;;2.90;93.40;;;;;;5080310;27;37663;-52
2022/03/06 02:32:18;;;;;;;8.30;3.65;;;2.90;93.40;;;;;;5081342;27;37981;-52
2022/03/06 02:34:47;;;;;;;7.82;3.53;;;3.00;93.30;;;;;;5080666;27;36624;-54
2022/03/06 02:37:18;;;;;;;10.25;4.13;;;3.00;93.30;;;;;;5079278;27;37602;-52
2022/03/06 02:39:48;;;;;;;7.50;3.50;;;3.00;93.40;;;;;;5080488;27;37825;-52
2022/03/06 02:42:24;;;;;;;9.25;4.30;;;3.00;93.40;;;;;;5080813;27;37948;-52
2022/03/06 02:44:52;;;;;;;7.60;3.70;;;3.00;93.60;;;;;;5081769;27;36719;-52
2022/03/06 02:47:20;;;;;;;8.70;3.65;;;3.00;93.60;;;;;;5079931;27;36333;-51
2022/03/06 02:49:47;;;;;;;7.95;4.07;;;2.90;93.60;;;;;;5078556;27;37490;-52
2022/03/06 02:52:14;;;;;;;7.07;3.45;;;3.00;93.60;;;;;;5080458;27;38270;-52
2022/03/06 02:54:42;;;;;;;6.85;3.60;;;2.90;93.50;;;;;;5080585;27;35286;-52
2022/03/06 02:57:11;;;;;;;8.25;3.58;;;2.90;93.60;;;;;;5080190;27;36958;-52
2022/03/06 02:59:40;;;;;;;9.02;4.15;;;2.90;93.70;;;;;;5080690;27;37595;-52
2022/03/06 03:02:07;;;;;;;7.07;3.42;;;2.90;93.70;;;;;;5079956;27;36179;-52
2022/03/06 03:04:38;;;;;;;7.70;3.90;;;3.00;93.90;;;;;;5082491;27;36184;-52
2022/03/06 03:07:06;;;;;;;8.85;3.78;;;2.90;93.90;;;;;;5080776;27;37810;-52
2022/03/06 03:09:34;;;;;;;8.95;3.90;;;2.90;93.90;;;;;;5079243;27;37638;-52
2022/03/06 03:12:02;;;;;;;8.23;3.90;;;2.90;93.80;;;;;;5080984;27;37401;-52
2022/03/06 03:14:32;;;;;;;8.63;3.85;;;2.90;93.90;;;;;;5081219;27;35447;-52
2022/03/06 03:16:59;;;;;;;9.13;4.03;;;2.90;94.00;;;;;;5080636;27;39202;-52
2022/03/06 03:19:27;;;;;;;8.95;4.13;;;2.90;94.00;;;;;;5080565;27;37486;-52
2022/03/06 03:21:55;;;;;;;9.55;4.35;;;2.90;94.10;;;;;;5077975;27;37412;-51
2022/03/06 03:24:23;;;;;;;9.05;4.13;;;2.90;94.10;;;;;;5077642;27;37240;-51
2022/03/06 03:26:50;;;;;;;8.60;3.70;;;2.90;94.10;;;;;;5077885;27;37396;-52
2022/03/06 03:29:18;;;;;;;9.32;4.07;;;2.90;94.20;;;;;;5079598;27;37502;-51
2022/03/06 03:31:47;;;;;;;11.10;4.68;;;2.80;94.20;;;;;;5077964;27;39799;-52
2022/03/06 03:34:14;;;;;;;9.25;4.40;;;2.80;94.20;;;;;;5077177;27;35310;-50
2022/03/06 03:36:43;;;;;;;7.68;3.67;;;2.80;94.30;;;;;;5078365;27;38373;-52
2022/03/06 03:39:10;;;;;;;9.93;4.45;;;2.80;94.20;;;;;;5078628;27;38589;-52
2022/03/06 03:41:37;;;;;;;7.35;3.83;;;3.00;94.40;;;;;;5079586;27;37726;-53
2022/03/06 03:44:05;;;;;;;8.13;4.07;;;2.80;94.50;;;;;;5082949;27;36893;-53
2022/03/06 03:46:33;;;;;;;7.45;3.83;;;2.80;94.60;;;;;;5082877;27;37894;-52
2022/03/06 03:49:01;;;;;;;7.18;3.78;;;2.80;94.60;;;;;;5082171;27;37738;-52
2022/03/06 03:51:29;;;;;;;11.30;4.07;;;2.70;94.70;;;;;;5082762;27;38293;-49
2022/03/06 03:53:56;;;;;;;11.57;3.67;;;2.70;94.70;;;;;;5081045;27;35322;-51
2022/03/06 03:56:23;;;;;;;8.88;4.57;;;2.60;94.80;;;;;;5082457;27;41232;-50
2022/03/06 03:58:51;;;;;;;8.95;4.30;;;2.60;94.80;;;;;;5081390;27;37699;-51
2022/03/06 04:01:18;;;;;;;9.07;4.07;;;2.60;95.00;;;;;;5080649;27;37686;-52
2022/03/06 04:03:46;;;;;;;7.53;3.83;;;2.50;95.10;;;;;;5081754;27;37367;-51
2022/03/06 04:06:15;;;;;;;8.60;3.92;;;2.50;95.10;;;;;;5081951;27;39824;-51
2022/03/06 04:08:42;;;;;;;8.27;4.03;;;2.50;95.30;;;;;;5078439;27;38032;-51
2022/03/06 04:11:10;;;;;;;11.32;4.47;;;2.50;95.40;;;;;;5081247;27;36316;-50
2022/03/06 04:13:37;;;;;;;7.75;3.90;;;2.50;95.40;;;;;;5080781;27;36083;-51
2022/03/06 04:16:05;;;;;;;10.48;4.10;;;2.50;95.40;;;;;;5082822;27;39215;-52
2022/03/06 04:18:33;;;;;;;8.07;4.22;;;2.40;95.40;;;;;;5082749;27;37639;-49
2022/03/06 04:21:00;;;;;;;8.60;3.90;;;2.40;95.40;;;;;;5080794;27;38731;-52
2022/03/06 04:23:29;;;;;;;11.98;4.55;;;2.40;95.30;;;;;;5081206;27;36565;-51
2022/03/06 04:25:56;;;;;;;7.32;4.35;;;2.30;95.70;;;;;;5082413;27;38507;-51
2022/03/06 04:28:23;;;;;;;7.50;3.67;;;2.30;95.70;;;;;;5081605;27;38217;-51
2022/03/06 04:30:51;;;;;;;9.25;3.60;;;2.30;95.60;;;;;;5082635;27;35380;-53
2022/03/06 04:33:18;;;;;;;9.23;3.92;;;2.30;95.70;;;;;;5081929;27;36296;-53
2022/03/06 04:35:45;;;;;;;7.50;3.53;;;2.30;95.80;;;;;;5082492;27;36305;-51
2022/03/06 04:38:12;;;;;;;8.65;3.88;;;2.20;95.90;;;;;;5081861;27;37709;-49
2022/03/06 04:40:41;;;;;;;10.40;3.75;;;2.20;95.90;;;;;;5079746;27;38206;-49
2022/03/06 04:43:08;;;;;;;8.57;3.90;;;2.20;95.80;;;;;;5081719;27;36550;-51
2022/03/06 04:45:36;;;;;;;9.73;3.78;;;2.20;95.80;;;;;;5081588;27;36247;-51
2022/03/06 04:48:04;;;;;;;9.20;3.67;;;2.20;95.90;;;;;;5079606;27;38052;-52
2022/03/06 04:50:31;;;;;;;7.95;3.53;;;2.10;95.90;;;;;;5081848;27;37758;-52
2022/03/06 04:52:58;;;;;;;7.95;3.80;;;2.10;95.90;;;;;;5081063;27;37228;-52
2022/03/06 04:55:26;;;;;;;10.00;4.78;;;2.10;95.70;;;;;;5081297;27;38498;-50
2022/03/06 04:57:55;;;;;;;8.55;3.47;;;2.10;95.80;;;;;;5081338;27;38352;-51
2022/03/06 05:00:22;;;;;;;9.80;4.00;;;2.00;95.70;;;;;;5081432;27;37586;-52
2022/03/06 05:02:49;;;;;;;9.05;3.53;;;2.00;95.60;;;;;;5081289;27;35535;-51
2022/03/06 05:05:17;;;;;;;7.78;3.30;;;2.00;95.80;;;;;;5081787;27;38423;-52
2022/03/06 05:07:44;;;;;;;8.23;3.50;;;2.00;95.70;;;;;;5080345;27;38334;-50
2022/03/06 05:10:11;;;;;;;9.48;3.58;;;2.00;95.70;;;;;;5081828;27;37249;-52
2022/03/06 05:12:41;;;;;;;7.90;3.75;;;2.00;95.60;;;;;;5081665;27;36368;-51
2022/03/06 05:15:12;;;;;;;8.43;3.50;;;1.90;95.60;;;;;;5080606;27;36969;-51
2022/03/06 05:17:40;;;;;;;7.55;3.13;;;2.00;95.50;;;;;;5082126;27;37671;-50
2022/03/06 05:20:09;;;;;;;10.27;4.28;;;1.90;95.40;;;;;;5080105;27;37571;-51
2022/03/06 05:22:36;;;;;;;8.18;3.17;;;1.90;95.40;;;;;;5085312;27;38285;-51
2022/03/06 05:25:04;;;;;;;8.88;3.53;;;1.90;95.30;;;;;;5084940;27;39033;-52
2022/03/06 05:27:31;;;;;;;7.20;3.25;;;1.90;95.30;;;;;;5083595;27;37579;-52
2022/03/06 05:29:59;;;;;;;9.32;3.55;;;1.80;95.20;;;;;;5085332;27;39685;-51
2022/03/06 05:32:27;;;;;;;9.30;2.80;;;1.80;95.20;;;;;;5085930;27;37026;-52
2022/03/06 05:34:55;;;;;;;8.52;2.90;;;1.80;95.20;;;;;;5081733;27;39621;-53
2022/03/06 05:37:22;;;;;;;10.27;3.40;;;1.80;95.30;;;;;;5085187;27;36740;-50
2022/03/06 05:39:49;;;;;;;9.43;3.97;;;1.80;95.30;;;;;;5084801;27;37494;-51
2022/03/06 05:42:18;;;;;;;6.97;3.10;;;1.80;95.10;;;;;;5082771;27;36777;-52
2022/03/06 05:44:45;;;;;;;8.88;3.70;;;1.80;95.10;;;;;;5084614;27;37486;-51
2022/03/06 05:47:13;;;;;;;11.15;3.88;;;1.70;95.20;;;;;;5083333;27;36364;-51
2022/03/06 05:49:41;;;;;;;9.82;3.78;;;1.80;95.40;;;;;;5084848;27;37180;-50
2022/03/06 05:52:08;;;;;;;10.50;4.22;;;1.70;95.40;;;;;;5083650;27;36616;-51
2022/03/06 05:54:36;;;;;;;8.07;3.13;;;1.70;95.40;;;;;;5082946;27;38134;-51
2022/03/06 05:57:04;;;;;;;7.35;3.30;;;1.60;95.40;;;;;;5084390;27;37287;-50
2022/03/06 05:59:31;;;;;;;7.18;3.38;;;1.60;95.60;;;;;;5084637;27;38262;-51
2022/03/06 06:01:58;;;;;;;8.82;5.13;;;1.50;95.50;;;;;;5081379;27;35297;-51
2022/03/06 06:04:25;;;;;;;9.00;3.55;;;1.50;95.60;;;;;;5084811;27;37734;-50
2022/03/06 06:06:54;;;;;;;10.18;4.95;;;1.50;95.70;;;;;;5082885;27;38100;-53
2022/03/06 06:09:21;;;;;;;11.85;3.95;;;1.50;95.70;;;;;;5082715;27;38158;-50
2022/03/06 06:11:49;;;;;;;6.80;3.20;;;1.50;95.60;;;;;;5083377;27;35299;-51
2022/03/06 06:14:16;;;;;;;8.70;4.60;;;1.50;95.60;;;;;;5082931;27;37791;-48
2022/03/06 06:16:44;;;;;;;10.07;3.97;;;1.50;95.80;;;;;;5084108;27;37758;-52
2022/03/06 06:19:11;;;;;;;7.78;3.22;;;1.60;95.70;;;;;;5085368;27;36236;-50
2022/03/06 06:21:43;;;;;;;7.88;3.25;;;1.60;95.60;;;;;;5081434;27;36982;-51
2022/03/06 06:24:12;;;;;;;7.38;3.22;;;1.60;95.50;;;;;;5084513;27;36798;-51
2022/03/06 06:26:39;;;;;;;7.75;3.20;;;1.60;95.50;;;;;;5082191;27;40175;-52
2022/03/06 06:29:06;;;;;;;7.47;3.15;;;1.70;95.40;;;;;;5082846;27;38216;-48
2022/03/06 06:31:34;;;;;;;5.63;2.63;;;1.80;95.20;;;;;;5084367;27;35315;-51
2022/03/06 06:34:01;;;;;;;7.63;2.50;;;2.00;95.00;;;;;;5082911;27;37745;-52
2022/03/06 06:36:29;;;;;;;6.55;2.78;;;2.00;94.70;;;;;;5084498;27;38291;-50
2022/03/06 06:38:56;;;;;;;7.07;2.90;;;2.00;94.50;;;;;;5083094;27;36146;-51
2022/03/06 06:41:25;;;;;;;5.90;2.60;;;2.10;94.20;;;;;;5081604;27;37000;-50
2022/03/06 06:43:52;;;;;;;4.68;2.20;;;2.20;93.80;;;;;;5085304;27;38004;-50
2022/03/06 06:46:19;;;;;;;7.53;2.30;;;2.20;93.80;;;;;;5083772;27;39444;-52
2022/03/06 06:48:47;;;;;;;6.80;2.38;;;2.20;93.40;;;;;;5082189;27;36110;-51
2022/03/06 06:51:14;;;;;;;4.95;2.22;;;2.30;93.10;;;;;;5083040;27;37845;-52
2022/03/06 06:53:41;;;;;;;5.55;2.30;;;2.40;92.80;;;;;;5083733;27;38413;-50
2022/03/06 06:56:09;;;;;;;5.35;2.15;;;2.40;92.00;;;;;;5082459;27;38338;-51
2022/03/06 06:58:37;;;;;;;8.55;2.30;;;2.50;91.80;;;;;;5083328;27;37527;-51
2022/03/06 07:01:08;;;;;;;3.80;1.75;;;2.60;91.20;;;;;;5084192;27;37871;-50
2022/03/06 07:03:35;;;;;;;5.55;1.80;;;2.70;91.00;;;;;;5083587;27;38432;-51
2022/03/06 07:06:03;;;;;;;7.20;1.92;;;2.80;90.40;;;;;;5082871;27;37045;-52
2022/03/06 07:08:30;;;;;;;4.30;1.80;;;3.00;90.00;;;;;;5081249;27;37433;-51
2022/03/06 07:10:57;;;;;;;4.90;1.67;;;3.10;89.20;;;;;;5083983;27;35277;-51
2022/03/06 07:13:25;;;;;;;4.70;2.00;;;3.20;88.00;;;;;;5081873;27;38286;-50
2022/03/06 07:15:53;;;;;;;4.13;1.65;;;3.40;86.50;;;;;;5081904;27;37994;-47
2022/03/06 07:18:21;;;;;;;4.05;1.77;;;3.50;85.70;;;;;;5082710;27;37838;-54
2022/03/06 07:20:48;;;;;;;3.88;1.60;;;3.70;85.40;;;;;;5083284;27;35324;-53
2022/03/06 07:23:16;;;;;;;6.35;2.20;;;3.90;83.70;;;;;;5082688;27;39135;-47
2022/03/06 07:25:43;;;;;;;4.75;1.50;;;3.90;82.90;;;;;;5080815;27;37799;-52
2022/03/06 07:28:11;;;;;;;4.05;1.50;;;4.00;81.40;;;;;;5081994;27;36314;-53
2022/03/06 07:30:38;;;;;;;4.18;1.77;;;4.10;81.10;;;;;;5081495;27;35972;-51
2022/03/06 07:33:07;;;;;;;7.03;1.73;;;4.20;81.00;;;;;;5082798;27;38498;-52
2022/03/06 07:35:34;;;;;;;2.65;1.30;;;4.30;79.60;;;;;;5081562;27;37662;-51
2022/03/06 07:38:02;;;;;;;7.15;1.50;;;4.40;79.20;;;;;;5083655;27;38002;-50
2022/03/06 07:40:29;;;;;;;4.53;1.55;;;4.50;78.50;;;;;;5083314;27;37587;-49
2022/03/06 07:42:56;;;;;;;4.07;1.75;;;4.50;77.10;;;;;;5081736;27;37628;-50
2022/03/06 07:45:24;;;;;;;5.70;1.65;;;4.60;76.70;;;;;;5082629;27;37241;-52
2022/03/06 07:47:51;;;;;;;5.72;1.70;;;4.60;76.00;;;;;;5082229;27;37747;-51
2022/03/06 07:50:20;;;;;;;4.78;1.70;;;4.70;75.90;;;;;;5081880;27;36395;-52
2022/03/06 07:52:47;;;;;;;5.53;1.60;;;4.80;73.50;;;;;;5082918;27;38934;-51
2022/03/06 07:55:15;;;;;;;6.70;1.73;;;4.80;73.90;;;;;;5081875;27;36402;-51
2022/03/06 07:57:42;;;;;;;4.72;1.77;;;4.90;73.80;;;;;;5082162;27;37399;-51
2022/03/06 08:00:11;;;;;;;5.97;1.80;;;5.00;71.20;;;;;;5083076;27;37814;-51
2022/03/06 08:02:40;;;;;;;4.70;1.42;;;5.00;69.40;;;;;;5080001;27;37393;-52
2022/03/06 08:05:09;;;;;;;4.03;1.52;;;5.00;69.90;;;;;;5082809;27;38446;-50
2022/03/06 08:07:37;;;;;;;4.90;1.30;;;5.10;70.20;;;;;;5082202;27;38722;-51
2022/03/06 08:10:06;;;;;;;5.47;1.58;;;5.20;70.40;;;;;;5080512;27;36024;-51
2022/03/06 08:12:33;;;;;;;4.85;1.92;;;5.20;65.10;;;;;;5081150;27;37868;-50
2022/03/06 08:15:01;;;;;;;4.70;1.52;;;5.40;68.40;;;;;;5079172;27;37836;-52
2022/03/06 08:17:28;;;;;;;6.43;1.77;;;5.60;68.60;;;;;;5081703;27;36242;-52
2022/03/06 08:19:55;;;;;;;3.95;1.50;;;5.80;68.60;;;;;;5082482;27;36498;-51
2022/03/06 08:22:23;;;;;;;4.93;1.58;;;6.00;67.80;;;;;;5078677;27;37399;-52
2022/03/06 08:24:53;;;;;;;8.65;2.65;;;6.30;67.00;;;;;;5081310;27;37936;-52
2022/03/06 08:27:21;;;;;;;7.40;1.83;;;6.60;64.80;;;;;;5080729;27;37837;-55
2022/03/06 08:29:48;;;;;;;5.85;1.98;;;6.90;63.00;;;;;;5079496;27;37884;-53
2022/03/06 08:32:16;;;;;;;4.35;1.50;;;7.30;61.30;;;;;;5080050;27;39205;-53
2022/03/06 08:34:43;;;;;;;3.47;1.40;;;7.60;60.70;;;;;;5080150;27;37853;-52
2022/03/06 08:37:11;;;;;;;5.53;1.85;;;7.90;59.30;;;;;;5081839;27;37362;-53
2022/03/06 08:39:38;;;;;;;7.47;2.38;;;8.30;57.80;;;;;;5081864;27;35470;-52
2022/03/06 08:42:07;;;;;;;5.13;1.77;;;8.80;55.90;;;;;;5078841;27;37511;-53
2022/03/06 08:44:35;;;;;;;5.63;1.80;;;9.10;51.50;;;;;;5081277;27;37597;-52
2022/03/06 08:47:02;;;;;;;4.22;1.40;;;9.10;51.70;;;;;;5080662;27;38077;-53
2022/03/06 08:49:29;;;;;;;5.70;1.40;;;9.20;52.40;;;;;;5079274;27;36329;-52
2022/03/06 08:51:57;;;;;;;4.07;1.48;;;9.20;52.60;;;;;;5080975;27;37790;-54
2022/03/06 08:54:24;;;;;;;3.92;1.55;;;9.30;51.50;;;;;;5080395;27;39145;-52
2022/03/06 08:56:52;;;;;;;5.80;1.50;;;9.20;52.30;;;;;;5082159;27;36270;-53
2022/03/06 08:59:20;;;;;;;4.50;1.65;;;9.40;51.50;;;;;;5083473;27;36781;-52
2022/03/06 09:01:48;;;;;;;4.90;1.60;;;9.60;50.10;;;;;;5083587;27;39320;-53
2022/03/06 09:04:16;;;;;;;4.93;1.77;;;9.80;50.40;;;;;;5086081;27;37693;-53
2022/03/06 09:06:43;;;;;;;6.85;1.80;;;10.10;49.00;;;;;;5085929;27;37340;-52
2022/03/06 09:09:10;;;;;;;4.03;1.48;;;10.40;48.10;;;;;;5082621;27;37238;-52
2022/03/06 09:11:38;;;;;;;4.68;1.65;;;10.40;47.30;;;;;;5084051;27;37529;-53
2022/03/06 09:14:05;;;;;;;5.60;2.20;;;10.40;47.10;;;;;;5085510;27;36721;-52
2022/03/06 09:16:34;;;;;;;4.38;1.45;;;10.40;47.30;;;;;;5082926;27;37970;-53
2022/03/06 09:19:02;;;;;;;3.75;1.45;;;10.60;47.60;;;;;;5084215;27;33891;-52
2022/03/06 09:21:30;;;;;;;4.43;1.63;;;10.70;47.30;;;;;;5085399;27;37508;-53
2022/03/06 09:23:57;;;;;;;4.75;1.75;;;10.60;46.80;;;;;;5083799;27;38718;-52
2022/03/06 09:26:25;;;;;;;5.85;1.90;;;10.20;47.20;;;;;;5083046;27;36239;-52
2022/03/06 09:28:52;;;;;;;3.22;1.40;;;9.90;47.40;;;;;;5080946;27;36204;-52
2022/03/06 09:31:21;;;;;;;4.78;1.77;;;9.80;47.40;;;;;;5083519;27;39379;-53
2022/03/06 09:33:50;;;;;;;6.07;1.85;;;9.70;49.20;;;;;;5082341;27;37705;-51
2022/03/06 09:36:18;;;;;;;7.05;2.20;;;9.80;48.80;;;;;;5081431;27;36771;-53
2022/03/06 09:38:45;;;;;;;4.75;1.83;;;10.10;48.00;;;;;;5083243;27;36444;-53
2022/03/06 09:41:17;;;;;;;6.07;1.80;;;10.40;48.60;;;;;;5082506;27;36287;-53
2022/03/06 09:43:45;;;;;;;4.63;1.75;;;10.60;47.50;;;;;;5083347;27;37850;-52
2022/03/06 09:46:13;;;;;;;5.88;1.70;;;10.60;46.60;;;;;;5081799;27;36279;-53
2022/03/06 09:48:40;;;;;;;6.63;2.08;;;10.70;47.10;;;;;;5083389;27;39084;-51
2022/03/06 09:51:09;;;;;;;5.43;2.08;;;10.80;46.90;;;;;;5081880;27;38772;-53
2022/03/06 09:53:36;;;;;;;4.30;1.90;;;10.80;46.60;;;;;;5083056;27;37851;-53
2022/03/06 09:56:04;;;;;;;6.30;2.10;;;11.00;47.00;;;;;;5083330;27;38136;-51
2022/03/06 09:58:31;;;;;;;5.32;1.88;;;11.10;47.10;;;;;;5083648;27;35443;-53
2022/03/06 10:00:59;;;;;;;5.00;1.95;;;11.10;46.30;;;;;;5083024;27;38354;-53
2022/03/06 10:03:27;;;;;;;5.15;1.88;;;11.10;47.20;;;;;;5083811;27;38339;-51
2022/03/06 10:05:54;;;;;;;6.75;1.90;;;11.20;46.60;;;;;;5082119;27;37273;-52
2022/03/06 10:08:25;;;;;;;6.40;2.08;;;11.10;46.90;;;;;;5079171;27;36365;-53
2022/03/06 10:10:55;;;;;;;6.60;1.85;;;11.10;46.30;;;;;;5081762;27;37494;-52
2022/03/06 10:13:26;;;;;;;4.50;1.65;;;11.20;45.90;;;;;;5082457;27;37698;-52
2022/03/06 10:16:01;;;;;;;6.60;2.10;;;11.00;46.30;;;;;;5082225;27;39681;-53
2022/03/06 10:18:31;;;;;;;5.30;1.77;;;10.80;46.30;;;;;;5083337;27;35494;-51
2022/03/06 10:21:11;;;;;;;5.78;2.30;;;10.80;46.60;;;;;;5078086;27;38973;-52
2022/03/06 10:23:40;;;;;;;4.32;1.63;;;11.10;45.60;;;;;;5078288;27;37681;-52
2022/03/06 10:26:09;;;;;;;8.52;2.42;;;11.40;44.70;;;;;;5080514;27;38292;-53
2022/03/06 10:28:52;;;;;;;6.25;2.33;;;11.70;44.70;;;;;;5082443;27;36736;-49
2022/03/06 10:31:21;;;;;;;5.28;1.83;;;11.60;44.30;;;;;;5082703;27;39583;-53
2022/03/06 10:33:56;;;;;;;6.22;1.70;;;11.20;45.40;;;;;;5080947;27;37817;-51
2022/03/06 10:36:35;;;;;;;4.88;1.63;;;11.10;45.50;;;;;;5084362;27;38214;-53
2022/03/06 10:39:09;;;;;;;6.97;1.90;;;11.00;45.10;;;;;;5083775;27;35300;-52
2022/03/06 10:41:39;;;;;;;4.85;1.73;;;11.00;45.60;;;;;;5080398;27;37293;-51
2022/03/06 10:44:08;;;;;;;4.78;1.73;;;11.00;46.60;;;;;;5082330;27;37785;-52
2022/03/06 10:46:36;;;;;;;6.75;1.70;;;11.20;45.60;;;;;;5082105;27;37393;-52
2022/03/06 10:49:12;;;;;;;6.85;2.28;;;11.30;46.80;;;;;;5081069;27;36554;-51
2022/03/06 10:51:41;;;;;;;5.45;1.85;;;11.50;46.60;;;;;;5081233;27;36456;-52
2022/03/06 10:54:11;;;;;;;4.80;1.50;;;11.40;46.80;;;;;;5081340;27;37718;-52
2022/03/06 10:56:39;;;;;;;5.40;1.70;;;11.40;46.80;;;;;;5081275;27;37214;-53
2022/03/06 10:59:08;;;;;;;6.65;2.00;;;11.30;47.30;;;;;;5081770;27;37338;-51
2022/03/06 11:01:37;;;;;;;5.45;1.80;;;11.20;47.50;;;;;;5080999;27;36915;-52
2022/03/06 11:04:07;;;;;;;4.90;2.13;;;11.10;47.60;;;;;;5082429;27;36578;-53
2022/03/06 11:06:40;;;;;;;6.00;2.15;;;11.00;47.50;;;;;;5079726;27;38356;-54
2022/03/06 11:09:13;;;;;;;6.63;1.92;;;11.10;47.40;;;;;;5081377;27;37607;-57
2022/03/06 11:11:42;;;;;;;5.63;1.73;;;11.00;47.10;;;;;;5078629;27;37347;-57
2022/03/06 11:14:10;;;;;;;4.80;2.00;;;10.90;48.10;;;;;;5081862;27;37644;-56
2022/03/06 11:16:40;;;;;;;5.78;1.83;;;10.80;48.30;;;;;;5083060;27;37177;-56
2022/03/06 11:19:08;;;;;;;6.13;1.80;;;11.00;49.00;;;;;;5081321;27;38435;-57
2022/03/06 11:21:38;;;;;;;7.78;2.17;;;11.00;47.60;;;;;;5082639;27;37302;-57
2022/03/06 11:24:10;;;;;;;5.65;2.15;;;10.90;47.30;;;;;;5082676;27;39705;-56
2022/03/06 11:27:27;;;;;;;5.90;1.95;;;10.70;47.90;;;;;;5081864;27;37248;-56
2022/03/06 11:30:05;;;;;;;5.13;1.80;;;10.30;48.70;;;;;;5082273;27;37344;-56
2022/03/06 11:32:35;;;;;;;6.80;2.13;;;10.10;49.30;;;;;;5079747;27;37442;-57
2022/03/06 11:35:09;;;;;;;4.70;2.05;;;10.00;49.50;;;;;;5081896;27;37380;-57
2022/03/06 11:37:51;;;;;;;5.20;1.98;;;10.10;50.10;;;;;;5082664;27;37412;-57
2022/03/06 11:40:44;;;;;;;4.38;1.70;;;10.30;49.90;;;;;;5080470;27;37327;-56
2022/03/06 11:43:28;;;;;;;6.93;2.03;;;10.30;48.80;;;;;;5082099;27;37409;-56
2022/03/06 11:46:05;;;;;;;6.05;1.77;;;10.30;49.80;;;;;;5080488;27;38878;-56
2022/03/06 11:49:04;;;;;;;4.13;1.40;;;10.20;50.50;;;;;;5082585;27;38789;-56
2022/03/06 11:51:33;;;;;;;5.63;1.77;;;10.10;50.90;;;;;;5082015;27;36454;-57
2022/03/06 11:54:03;;;;;;;5.20;1.80;;;9.90;50.90;;;;;;5081145;27;37582;-57
2022/03/06 11:56:52;;;;;;;5.03;1.83;;;9.70;51.90;;;;;;5082005;27;36525;-56
2022/03/06 11:59:35;;;;;;;5.65;2.05;;;9.50;52.80;;;;;;5082048;27;20102;-56
2022/03/06 12:02:21;;;;;;;5.97;1.80;;;9.30;52.50;;;;;;5082338;27;36975;-56
2022/03/06 12:04:57;;;;;;;5.55;1.83;;;9.30;53.30;;;;;;5082078;27;37293;-56
2022/03/06 12:07:27;;;;;;;4.72;1.88;;;9.00;53.80;;;;;;5081396;27;39705;-57
2022/03/06 12:09:55;;;;;;;4.75;2.00;;;8.90;53.90;;;;;;5081039;27;38400;-56
2022/03/06 12:12:25;;;;;;;6.88;2.30;;;8.80;54.50;;;;;;5080330;27;36547;-56
2022/03/06 12:14:56;;;;;;;6.22;1.70;;;8.60;55.00;;;;;;5081962;27;40226;-56
2022/03/06 12:17:44;;;;;;;5.20;1.77;;;8.70;55.90;;;;;;5083479;27;37553;-56
2022/03/06 12:20:25;;;;;;;5.15;1.75;;;8.60;57.40;;;;;;5080883;27;36333;-57
2022/03/06 12:23:10;;;;;;;4.80;1.63;;;8.60;56.60;;;;;;5081432;27;35380;-56
2022/03/06 12:25:38;;;;;;;4.95;1.70;;;8.60;57.30;;;;;;5081074;27;37748;-56
2022/03/06 12:28:39;;;;;;;5.03;1.77;;;8.60;57.10;;;;;;5081989;27;37568;-59
2022/03/06 12:31:37;;;;;;;6.97;2.15;;;8.60;57.40;;;;;;5081655;27;37897;-57
2022/03/06 12:34:36;;;;;;;4.85;1.63;;;8.50;57.00;;;;;;5080409;27;36712;-57
2022/03/06 12:37:04;;;;;;;9.45;1.73;;;8.50;57.90;;;;;;5081285;27;36305;-57
2022/03/06 12:39:34;;;;;;;4.55;1.88;;;8.50;58.00;;;;;;5079168;27;39277;-56
2022/03/06 12:42:01;;;;;;;4.07;1.75;;;8.40;58.10;;;;;;5081270;27;37957;-56
2022/03/06 12:44:32;;;;;;;5.15;1.70;;;8.30;58.50;;;;;;5081244;27;37927;-56
2022/03/06 12:47:01;;;;;;;7.05;1.50;;;8.40;58.90;;;;;;5079257;27;38076;-56
2022/03/06 12:49:28;;;;;;;6.13;2.25;;;8.40;59.50;;;;;;5082693;27;37980;-56
2022/03/06 12:51:55;;;;;;;4.55;1.42;;;8.50;59.20;;;;;;5081510;27;37474;-56
2022/03/06 12:54:26;;;;;;;8.43;2.10;;;8.60;59.30;;;;;;5080955;27;35281;-56
2022/03/06 12:56:57;;;;;;;6.30;2.00;;;8.60;59.30;;;;;;5080789;27;38397;-56
2022/03/06 12:59:25;;;;;;;6.20;2.15;;;8.60;58.70;;;;;;5081033;27;37596;-57
2022/03/06 13:01:53;;;;;;;4.72;1.70;;;8.50;58.10;;;;;;5080903;27;37322;-56
2022/03/06 13:04:23;;;;;;;5.18;1.65;;;8.50;59.00;;;;;;5081329;27;36988;-56